Main page
METAR-TAF:

METAR-TAF

Airports :

Fliegerhorst Meppen

Meppen, Germany

latitude: 52-43-24N, longitude: 007-19-35E, elevation: 21 m

Current weather observation

The report was made 44 minutes ago, at 23:20 UTC
Wind 9 kt from the North/Northeast
Temperature 5°C
Humidity 93%
Pressure 1007 hPa

METAR: ETWM 172320Z AUTO 02009KT //// // ////// 05/04 Q1007 ///

Time: 01:04 (00:04 UTC)


TAF: missing

Weather observations and forecasts of more than 4000 airports (METAR and TAF reports).

The available stations are represented by yellow and red dots on the map.

Hover mouse over dot to see the name of the station.

Then click to see weather observations and forecasts.

To change the map : click on the green buttons with a black cross to zoom in, on the green button with a dash to zoom out, or on the green arrows for adjacent maps.


METAR-TAF: